sensor_id;sensor_type;location;lat;lon;timestamp;P1;durP1;ratioP1;P2;durP2;ratioP2
16735;SDS011;17990;49.548;9.730;2023-05-07T00:01:45;3.67;;;1.90;;
16735;SDS011;17990;49.548;9.730;2023-05-07T00:04:13;2.47;;;1.77;;
16735;SDS011;17990;49.548;9.730;2023-05-07T00:06:40;5.70;;;1.90;;
16735;SDS011;17990;49.548;9.730;2023-05-07T00:09:08;3.37;;;2.30;;
16735;SDS011;17990;49.548;9.730;2023-05-07T00:11:35;3.43;;;2.33;;
16735;SDS011;17990;49.548;9.730;2023-05-07T00:14:03;7.10;;;2.30;;
16735;SDS011;17990;49.548;9.730;2023-05-07T00:16:30;3.83;;;2.20;;
16735;SDS011;17990;49.548;9.730;2023-05-07T00:18:57;3.50;;;2.20;;
16735;SDS011;17990;49.548;9.730;2023-05-07T00:21:26;3.33;;;2.00;;
16735;SDS011;17990;49.548;9.730;2023-05-07T00:23:53;4.67;;;1.90;;
16735;SDS011;17990;49.548;9.730;2023-05-07T00:26:20;2.53;;;1.87;;
16735;SDS011;17990;49.548;9.730;2023-05-07T00:28:47;3.53;;;2.50;;
16735;SDS011;17990;49.548;9.730;2023-05-07T00:31:15;4.67;;;2.20;;
16735;SDS011;17990;49.548;9.730;2023-05-07T00:33:42;5.40;;;2.10;;
16735;SDS011;17990;49.548;9.730;2023-05-07T00:36:09;4.70;;;1.80;;
16735;SDS011;17990;49.548;9.730;2023-05-07T00:38:38;3.90;;;2.00;;
16735;SDS011;17990;49.548;9.730;2023-05-07T00:41:05;4.17;;;2.00;;
16735;SDS011;17990;49.548;9.730;2023-05-07T00:43:32;5.53;;;2.07;;
16735;SDS011;17990;49.548;9.730;2023-05-07T00:45:59;3.77;;;2.20;;
16735;SDS011;17990;49.548;9.730;2023-05-07T00:48:27;2.97;;;2.30;;
16735;SDS011;17990;49.548;9.730;2023-05-07T00:50:54;3.80;;;2.30;;
16735;SDS011;17990;49.548;9.730;2023-05-07T00:53:21;2.43;;;2.10;;
16735;SDS011;17990;49.548;9.730;2023-05-07T00:55:50;2.43;;;2.03;;
16735;SDS011;17990;49.548;9.730;2023-05-07T00:58:17;2.90;;;2.43;;
16735;SDS011;17990;49.548;9.730;2023-05-07T01:00:44;2.60;;;2.00;;
16735;SDS011;17990;49.548;9.730;2023-05-07T01:03:11;3.40;;;2.30;;
16735;SDS011;17990;49.548;9.730;2023-05-07T01:05:39;2.83;;;2.17;;
16735;SDS011;17990;49.548;9.730;2023-05-07T01:08:06;3.10;;;2.30;;
16735;SDS011;17990;49.548;9.730;2023-05-07T01:10:34;2.43;;;1.93;;
16735;SDS011;17990;49.548;9.730;2023-05-07T01:13:02;3.57;;;2.10;;
16735;SDS011;17990;49.548;9.730;2023-05-07T01:15:30;3.63;;;2.20;;
16735;SDS011;17990;49.548;9.730;2023-05-07T01:17:57;3.20;;;2.30;;
16735;SDS011;17990;49.548;9.730;2023-05-07T01:20:24;3.13;;;2.20;;
16735;SDS011;17990;49.548;9.730;2023-05-07T01:22:53;2.90;;;2.53;;
16735;SDS011;17990;49.548;9.730;2023-05-07T01:25:21;3.60;;;2.57;;
16735;SDS011;17990;49.548;9.730;2023-05-07T01:27:48;5.20;;;2.40;;
16735;SDS011;17990;49.548;9.730;2023-05-07T01:30:16;3.43;;;2.80;;
16735;SDS011;17990;49.548;9.730;2023-05-07T01:32:44;2.97;;;2.20;;
16735;SDS011;17990;49.548;9.730;2023-05-07T01:35:15;4.50;;;2.20;;
16735;SDS011;17990;49.548;9.730;2023-05-07T01:37:45;4.50;;;2.60;;
16735;SDS011;17990;49.548;9.730;2023-05-07T01:40:14;4.67;;;2.53;;
16735;SDS011;17990;49.548;9.730;2023-05-07T01:42:42;3.33;;;2.60;;
16735;SDS011;17990;49.548;9.730;2023-05-07T01:45:10;3.20;;;2.10;;
16735;SDS011;17990;49.548;9.730;2023-05-07T01:47:37;4.27;;;2.40;;
16735;SDS011;17990;49.548;9.730;2023-05-07T01:50:05;3.20;;;2.53;;
16735;SDS011;17990;49.548;9.730;2023-05-07T01:52:35;4.23;;;2.30;;
16735;SDS011;17990;49.548;9.730;2023-05-07T01:55:04;2.90;;;2.30;;
16735;SDS011;17990;49.548;9.730;2023-05-07T01:57:33;3.90;;;2.50;;
16735;SDS011;17990;49.548;9.730;2023-05-07T02:00:00;4.03;;;2.67;;
16735;SDS011;17990;49.548;9.730;2023-05-07T02:02:31;2.97;;;2.50;;
16735;SDS011;17990;49.548;9.730;2023-05-07T02:04:58;3.70;;;2.40;;
16735;SDS011;17990;49.548;9.730;2023-05-07T02:07:26;4.30;;;2.67;;
16735;SDS011;17990;49.548;9.730;2023-05-07T02:09:53;4.77;;;2.40;;
16735;SDS011;17990;49.548;9.730;2023-05-07T02:12:21;3.67;;;2.73;;
16735;SDS011;17990;49.548;9.730;2023-05-07T02:14:49;3.80;;;2.70;;
16735;SDS011;17990;49.548;9.730;2023-05-07T02:17:17;3.87;;;2.80;;
16735;SDS011;17990;49.548;9.730;2023-05-07T02:19:44;3.83;;;2.50;;
16735;SDS011;17990;49.548;9.730;2023-05-07T02:22:11;4.63;;;2.70;;
16735;SDS011;17990;49.548;9.730;2023-05-07T02:24:38;3.33;;;2.77;;
16735;SDS011;17990;49.548;9.730;2023-05-07T02:27:06;2.83;;;2.47;;
16735;SDS011;17990;49.548;9.730;2023-05-07T02:29:33;2.73;;;2.30;;
16735;SDS011;17990;49.548;9.730;2023-05-07T02:32:01;5.73;;;2.63;;
16735;SDS011;17990;49.548;9.730;2023-05-07T02:34:29;4.20;;;3.20;;
16735;SDS011;17990;49.548;9.730;2023-05-07T02:36:56;4.63;;;2.83;;
16735;SDS011;17990;49.548;9.730;2023-05-07T02:39:23;4.80;;;2.77;;
16735;SDS011;17990;49.548;9.730;2023-05-07T02:41:50;3.00;;;2.23;;
16735;SDS011;17990;49.548;9.730;2023-05-07T02:44:17;4.83;;;2.37;;
16735;SDS011;17990;49.548;9.730;2023-05-07T02:46:45;3.70;;;2.30;;
16735;SDS011;17990;49.548;9.730;2023-05-07T02:49:13;3.87;;;2.20;;
16735;SDS011;17990;49.548;9.730;2023-05-07T02:51:40;5.23;;;2.07;;
16735;SDS011;17990;49.548;9.730;2023-05-07T02:54:07;2.43;;;2.00;;
16735;SDS011;17990;49.548;9.730;2023-05-07T02:56:35;5.10;;;2.57;;
16735;SDS011;17990;49.548;9.730;2023-05-07T02:59:02;6.03;;;3.20;;
16735;SDS011;17990;49.548;9.730;2023-05-07T03:01:29;5.67;;;3.00;;
16735;SDS011;17990;49.548;9.730;2023-05-07T03:03:56;2.97;;;2.50;;
16735;SDS011;17990;49.548;9.730;2023-05-07T03:06:25;5.20;;;2.80;;
16735;SDS011;17990;49.548;9.730;2023-05-07T03:08:52;3.10;;;2.40;;
16735;SDS011;17990;49.548;9.730;2023-05-07T03:11:19;4.43;;;2.60;;
16735;SDS011;17990;49.548;9.730;2023-05-07T03:13:46;6.33;;;2.40;;
16735;SDS011;17990;49.548;9.730;2023-05-07T03:16:15;4.60;;;2.50;;
16735;SDS011;17990;49.548;9.730;2023-05-07T03:18:42;3.80;;;2.50;;
16735;SDS011;17990;49.548;9.730;2023-05-07T03:21:09;6.57;;;3.03;;
16735;SDS011;17990;49.548;9.730;2023-05-07T03:23:38;3.90;;;2.93;;
16735;SDS011;17990;49.548;9.730;2023-05-07T03:26:05;6.70;;;3.10;;
16735;SDS011;17990;49.548;9.730;2023-05-07T03:28:32;4.20;;;3.07;;
16735;SDS011;17990;49.548;9.730;2023-05-07T03:31:00;3.97;;;2.70;;
16735;SDS011;17990;49.548;9.730;2023-05-07T03:33:27;3.47;;;2.70;;
16735;SDS011;17990;49.548;9.730;2023-05-07T03:35:54;3.43;;;2.60;;
16735;SDS011;17990;49.548;9.730;2023-05-07T03:38:21;3.50;;;2.47;;
16735;SDS011;17990;49.548;9.730;2023-05-07T03:40:50;5.40;;;2.60;;
16735;SDS011;17990;49.548;9.730;2023-05-07T03:43:17;5.00;;;2.90;;
16735;SDS011;17990;49.548;9.730;2023-05-07T03:45:44;4.33;;;3.10;;
16735;SDS011;17990;49.548;9.730;2023-05-07T03:48:11;5.03;;;2.67;;
16735;SDS011;17990;49.548;9.730;2023-05-07T03:50:39;3.70;;;3.10;;
16735;SDS011;17990;49.548;9.730;2023-05-07T03:53:06;3.23;;;2.50;;
16735;SDS011;17990;49.548;9.730;2023-05-07T03:55:33;4.67;;;2.97;;
16735;SDS011;17990;49.548;9.730;2023-05-07T03:58:01;3.97;;;2.67;;
16735;SDS011;17990;49.548;9.730;2023-05-07T04:00:29;4.13;;;2.70;;
16735;SDS011;17990;49.548;9.730;2023-05-07T04:02:58;5.30;;;2.60;;
16735;SDS011;17990;49.548;9.730;2023-05-07T04:05:25;4.53;;;2.70;;
16735;SDS011;17990;49.548;9.730;2023-05-07T04:07:53;3.17;;;2.53;;
16735;SDS011;17990;49.548;9.730;2023-05-07T04:10:20;6.20;;;2.80;;
16735;SDS011;17990;49.548;9.730;2023-05-07T04:12:47;6.07;;;2.90;;
16735;SDS011;17990;49.548;9.730;2023-05-07T04:15:16;4.00;;;2.43;;
16735;SDS011;17990;49.548;9.730;2023-05-07T04:17:43;4.20;;;2.60;;
16735;SDS011;17990;49.548;9.730;2023-05-07T04:20:13;7.30;;;2.93;;
16735;SDS011;17990;49.548;9.730;2023-05-07T04:22:41;4.90;;;2.67;;
16735;SDS011;17990;49.548;9.730;2023-05-07T04:25:09;3.37;;;2.20;;
16735;SDS011;17990;49.548;9.730;2023-05-07T04:27:36;2.83;;;2.40;;
16735;SDS011;17990;49.548;9.730;2023-05-07T04:30:03;4.83;;;2.50;;
16735;SDS011;17990;49.548;9.730;2023-05-07T04:32:33;4.50;;;2.27;;
16735;SDS011;17990;49.548;9.730;2023-05-07T04:35:01;3.13;;;2.40;;
16735;SDS011;17990;49.548;9.730;2023-05-07T04:37:28;3.53;;;2.57;;
16735;SDS011;17990;49.548;9.730;2023-05-07T04:39:57;4.13;;;2.17;;
16735;SDS011;17990;49.548;9.730;2023-05-07T04:42:25;2.83;;;2.10;;
16735;SDS011;17990;49.548;9.730;2023-05-07T04:44:53;2.87;;;1.90;;
16735;SDS011;17990;49.548;9.730;2023-05-07T04:47:20;4.17;;;2.30;;
16735;SDS011;17990;49.548;9.730;2023-05-07T04:49:49;2.20;;;2.00;;
16735;SDS011;17990;49.548;9.730;2023-05-07T04:52:16;2.37;;;1.93;;
16735;SDS011;17990;49.548;9.730;2023-05-07T04:54:43;3.77;;;1.90;;
16735;SDS011;17990;49.548;9.730;2023-05-07T04:57:10;3.57;;;2.20;;
16735;SDS011;17990;49.548;9.730;2023-05-07T04:59:38;3.53;;;2.40;;
16735;SDS011;17990;49.548;9.730;2023-05-07T05:02:05;3.63;;;2.43;;
16735;SDS011;17990;49.548;9.730;2023-05-07T05:04:32;4.30;;;2.13;;
16735;SDS011;17990;49.548;9.730;2023-05-07T05:07:01;4.97;;;2.20;;
16735;SDS011;17990;49.548;9.730;2023-05-07T05:09:29;3.50;;;2.07;;
16735;SDS011;17990;49.548;9.730;2023-05-07T05:11:57;4.77;;;1.93;;
16735;SDS011;17990;49.548;9.730;2023-05-07T05:14:24;3.50;;;1.97;;
16735;SDS011;17990;49.548;9.730;2023-05-07T05:16:51;3.97;;;1.73;;
16735;SDS011;17990;49.548;9.730;2023-05-07T05:19:19;3.47;;;2.10;;
16735;SDS011;17990;49.548;9.730;2023-05-07T05:21:46;3.23;;;1.90;;
16735;SDS011;17990;49.548;9.730;2023-05-07T05:24:14;4.90;;;2.03;;
16735;SDS011;17990;49.548;9.730;2023-05-07T05:26:43;2.77;;;1.90;;
16735;SDS011;17990;49.548;9.730;2023-05-07T05:29:10;2.70;;;1.77;;
16735;SDS011;17990;49.548;9.730;2023-05-07T05:31:38;2.87;;;2.10;;
16735;SDS011;17990;49.548;9.730;2023-05-07T05:34:06;3.47;;;1.70;;
16735;SDS011;17990;49.548;9.730;2023-05-07T05:36:33;2.33;;;1.77;;
16735;SDS011;17990;49.548;9.730;2023-05-07T05:39:01;3.50;;;2.03;;
16735;SDS011;17990;49.548;9.730;2023-05-07T05:41:29;3.43;;;1.80;;
16735;SDS011;17990;49.548;9.730;2023-05-07T05:43:56;2.80;;;1.70;;
16735;SDS011;17990;49.548;9.730;2023-05-07T05:46:24;5.37;;;1.80;;
16735;SDS011;17990;49.548;9.730;2023-05-07T05:48:51;2.67;;;1.80;;
16735;SDS011;17990;49.548;9.730;2023-05-07T05:51:18;3.30;;;1.90;;
16735;SDS011;17990;49.548;9.730;2023-05-07T05:53:46;2.23;;;1.70;;
16735;SDS011;17990;49.548;9.730;2023-05-07T05:56:13;4.40;;;2.60;;
16735;SDS011;17990;49.548;9.730;2023-05-07T05:58:42;2.27;;;1.77;;
16735;SDS011;17990;49.548;9.730;2023-05-07T06:01:10;2.97;;;1.93;;
16735;SDS011;17990;49.548;9.730;2023-05-07T06:03:38;3.17;;;2.10;;
16735;SDS011;17990;49.548;9.730;2023-05-07T06:06:05;2.27;;;1.73;;
16735;SDS011;17990;49.548;9.730;2023-05-07T06:08:32;6.50;;;3.80;;
16735;SDS011;17990;49.548;9.730;2023-05-07T06:10:59;9.83;;;5.13;;
16735;SDS011;17990;49.548;9.730;2023-05-07T06:13:28;6.47;;;3.47;;
16735;SDS011;17990;49.548;9.730;2023-05-07T06:15:56;3.73;;;2.33;;
16735;SDS011;17990;49.548;9.730;2023-05-07T06:18:24;2.63;;;1.90;;
16735;SDS011;17990;49.548;9.730;2023-05-07T06:20:51;3.27;;;1.73;;
16735;SDS011;17990;49.548;9.730;2023-05-07T06:23:18;2.97;;;2.20;;
16735;SDS011;17990;49.548;9.730;2023-05-07T06:25:47;3.37;;;1.80;;
16735;SDS011;17990;49.548;9.730;2023-05-07T06:28:15;5.87;;;2.40;;
16735;SDS011;17990;49.548;9.730;2023-05-07T06:30:43;4.03;;;2.27;;
16735;SDS011;17990;49.548;9.730;2023-05-07T06:33:11;6.87;;;2.23;;
16735;SDS011;17990;49.548;9.730;2023-05-07T06:35:39;2.90;;;1.80;;
16735;SDS011;17990;49.548;9.730;2023-05-07T06:38:06;2.20;;;2.00;;
16735;SDS011;17990;49.548;9.730;2023-05-07T06:40:33;3.53;;;2.20;;
16735;SDS011;17990;49.548;9.730;2023-05-07T06:43:00;4.70;;;2.30;;
16735;SDS011;17990;49.548;9.730;2023-05-07T06:45:27;2.80;;;2.20;;
16735;SDS011;17990;49.548;9.730;2023-05-07T06:47:55;3.43;;;2.53;;
16735;SDS011;17990;49.548;9.730;2023-05-07T06:50:23;3.10;;;2.53;;
16735;SDS011;17990;49.548;9.730;2023-05-07T06:52:50;3.73;;;2.50;;
16735;SDS011;17990;49.548;9.730;2023-05-07T06:55:17;2.87;;;2.40;;
16735;SDS011;17990;49.548;9.730;2023-05-07T06:57:45;3.27;;;2.40;;
16735;SDS011;17990;49.548;9.730;2023-05-07T07:00:12;3.53;;;2.60;;
16735;SDS011;17990;49.548;9.730;2023-05-07T07:02:40;4.47;;;2.60;;
16735;SDS011;17990;49.548;9.730;2023-05-07T07:05:08;4.63;;;2.60;;
16735;SDS011;17990;49.548;9.730;2023-05-07T07:07:37;5.77;;;2.70;;
16735;SDS011;17990;49.548;9.730;2023-05-07T07:10:04;4.13;;;2.67;;
16735;SDS011;17990;49.548;9.730;2023-05-07T07:12:32;4.45;;;2.47;;
16735;SDS011;17990;49.548;9.730;2023-05-07T07:14:59;3.30;;;2.70;;
16735;SDS011;17990;49.548;9.730;2023-05-07T07:17:27;3.83;;;2.63;;
16735;SDS011;17990;49.548;9.730;2023-05-07T07:19:54;4.53;;;3.00;;
16735;SDS011;17990;49.548;9.730;2023-05-07T07:22:21;3.50;;;2.70;;
16735;SDS011;17990;49.548;9.730;2023-05-07T07:24:50;3.53;;;3.00;;
16735;SDS011;17990;49.548;9.730;2023-05-07T07:27:17;3.60;;;2.93;;
16735;SDS011;17990;49.548;9.730;2023-05-07T07:29:44;3.63;;;2.70;;
16735;SDS011;17990;49.548;9.730;2023-05-07T07:32:12;3.58;;;3.08;;
16735;SDS011;17990;49.548;9.730;2023-05-07T07:34:39;3.65;;;2.90;;
16735;SDS011;17990;49.548;9.730;2023-05-07T07:37:06;4.80;;;3.00;;
16735;SDS011;17990;49.548;9.730;2023-05-07T07:39:33;5.00;;;2.87;;
16735;SDS011;17990;49.548;9.730;2023-05-07T07:42:04;4.20;;;3.00;;
16735;SDS011;17990;49.548;9.730;2023-05-07T07:44:31;3.63;;;3.08;;
16735;SDS011;17990;49.548;9.730;2023-05-07T07:46:59;6.22;;;3.30;;
16735;SDS011;17990;49.548;9.730;2023-05-07T07:49:26;2.85;;;2.65;;
16735;SDS011;17990;49.548;9.730;2023-05-07T07:51:53;5.03;;;2.85;;
16735;SDS011;17990;49.548;9.730;2023-05-07T07:54:21;3.97;;;3.08;;
16735;SDS011;17990;49.548;9.730;2023-05-07T07:56:48;5.07;;;3.17;;
16735;SDS011;17990;49.548;9.730;2023-05-07T07:59:17;10.43;;;7.15;;
16735;SDS011;17990;49.548;9.730;2023-05-07T08:01:45;12.73;;;8.25;;
16735;SDS011;17990;49.548;9.730;2023-05-07T08:04:13;6.35;;;4.95;;
16735;SDS011;17990;49.548;9.730;2023-05-07T08:06:40;8.90;;;3.42;;
16735;SDS011;17990;49.548;9.730;2023-05-07T08:09:07;3.88;;;3.20;;
16735;SDS011;17990;49.548;9.730;2023-05-07T08:11:34;3.78;;;3.10;;
16735;SDS011;17990;49.548;9.730;2023-05-07T08:14:02;3.80;;;3.13;;
16735;SDS011;17990;49.548;9.730;2023-05-07T08:16:30;5.53;;;3.03;;
16735;SDS011;17990;49.548;9.730;2023-05-07T08:18:57;3.30;;;3.00;;
16735;SDS011;17990;49.548;9.730;2023-05-07T08:21:25;4.13;;;3.40;;
16735;SDS011;17990;49.548;9.730;2023-05-07T08:23:52;4.57;;;3.45;;
16735;SDS011;17990;49.548;9.730;2023-05-07T08:26:19;9.77;;;7.15;;
16735;SDS011;17990;49.548;9.730;2023-05-07T08:28:46;3.63;;;3.33;;
16735;SDS011;17990;49.548;9.730;2023-05-07T08:31:14;5.00;;;3.38;;
16735;SDS011;17990;49.548;9.730;2023-05-07T08:33:42;6.43;;;3.78;;
16735;SDS011;17990;49.548;9.730;2023-05-07T08:36:09;3.63;;;3.22;;
16735;SDS011;17990;49.548;9.730;2023-05-07T08:38:37;4.50;;;3.20;;
16735;SDS011;17990;49.548;9.730;2023-05-07T08:41:05;3.42;;;3.03;;
16735;SDS011;17990;49.548;9.730;2023-05-07T08:43:32;3.67;;;3.33;;
16735;SDS011;17990;49.548;9.730;2023-05-07T08:46:00;3.92;;;3.60;;
16735;SDS011;17990;49.548;9.730;2023-05-07T08:48:28;4.28;;;3.88;;
16735;SDS011;17990;49.548;9.730;2023-05-07T08:50:57;4.65;;;3.70;;
16735;SDS011;17990;49.548;9.730;2023-05-07T08:53:25;3.92;;;3.53;;
16735;SDS011;17990;49.548;9.730;2023-05-07T08:55:52;3.45;;;3.15;;
16735;SDS011;17990;49.548;9.730;2023-05-07T08:58:19;5.03;;;3.25;;
16735;SDS011;17990;49.548;9.730;2023-05-07T09:00:47;3.88;;;3.42;;
16735;SDS011;17990;49.548;9.730;2023-05-07T09:03:14;5.18;;;3.35;;
16735;SDS011;17990;49.548;9.730;2023-05-07T09:05:41;5.72;;;3.45;;
16735;SDS011;17990;49.548;9.730;2023-05-07T09:08:14;6.28;;;5.50;;
16735;SDS011;17990;49.548;9.730;2023-05-07T09:10:41;6.95;;;6.00;;
16735;SDS011;17990;49.548;9.730;2023-05-07T09:13:09;4.10;;;3.13;;
16735;SDS011;17990;49.548;9.730;2023-05-07T09:15:39;4.45;;;4.05;;
16735;SDS011;17990;49.548;9.730;2023-05-07T09:18:06;6.97;;;4.50;;
16735;SDS011;17990;49.548;9.730;2023-05-07T09:20:33;5.05;;;4.25;;
16735;SDS011;17990;49.548;9.730;2023-05-07T09:23:03;3.88;;;2.80;;
16735;SDS011;17990;49.548;9.730;2023-05-07T09:25:34;3.15;;;2.85;;
16735;SDS011;17990;49.548;9.730;2023-05-07T09:28:02;4.13;;;3.08;;
16735;SDS011;17990;49.548;9.730;2023-05-07T09:30:31;5.75;;;2.95;;
16735;SDS011;17990;49.548;9.730;2023-05-07T09:32:59;4.68;;;3.72;;
16735;SDS011;17990;49.548;9.730;2023-05-07T09:35:27;4.65;;;3.72;;
16735;SDS011;17990;49.548;9.730;2023-05-07T09:37:54;4.55;;;4.15;;
16735;SDS011;17990;49.548;9.730;2023-05-07T09:40:23;4.10;;;3.70;;
16735;SDS011;17990;49.548;9.730;2023-05-07T09:42:52;3.85;;;3.22;;
16735;SDS011;17990;49.548;9.730;2023-05-07T09:45:23;4.22;;;3.10;;
16735;SDS011;17990;49.548;9.730;2023-05-07T09:47:53;7.18;;;5.80;;
16735;SDS011;17990;49.548;9.730;2023-05-07T09:50:22;6.43;;;5.80;;
16735;SDS011;17990;49.548;9.730;2023-05-07T09:52:53;5.63;;;3.15;;
16735;SDS011;17990;49.548;9.730;2023-05-07T09:55:21;4.25;;;3.15;;
16735;SDS011;17990;49.548;9.730;2023-05-07T09:57:49;3.83;;;3.38;;
16735;SDS011;17990;49.548;9.730;2023-05-07T10:00:19;3.38;;;3.08;;
16735;SDS011;17990;49.548;9.730;2023-05-07T10:02:47;3.33;;;3.00;;
16735;SDS011;17990;49.548;9.730;2023-05-07T10:05:16;4.28;;;3.10;;
16735;SDS011;17990;49.548;9.730;2023-05-07T10:07:45;4.18;;;3.78;;
16735;SDS011;17990;49.548;9.730;2023-05-07T10:10:12;4.05;;;3.17;;
16735;SDS011;17990;49.548;9.730;2023-05-07T10:12:41;6.30;;;5.03;;
16735;SDS011;17990;49.548;9.730;2023-05-07T10:15:08;6.25;;;3.20;;
16735;SDS011;17990;49.548;9.730;2023-05-07T10:17:38;4.50;;;2.95;;
16735;SDS011;17990;49.548;9.730;2023-05-07T10:20:06;4.82;;;3.30;;
16735;SDS011;17990;49.548;9.730;2023-05-07T10:22:37;4.18;;;3.25;;
16735;SDS011;17990;49.548;9.730;2023-05-07T10:25:05;4.28;;;3.88;;
16735;SDS011;17990;49.548;9.730;2023-05-07T10:27:36;3.63;;;3.33;;
16735;SDS011;17990;49.548;9.730;2023-05-07T10:30:05;5.15;;;4.65;;
16735;SDS011;17990;49.548;9.730;2023-05-07T10:32:40;5.85;;;3.75;;
16735;SDS011;17990;49.548;9.730;2023-05-07T10:35:09;4.28;;;3.88;;
16735;SDS011;17990;49.548;9.730;2023-05-07T10:37:40;4.05;;;3.65;;
16735;SDS011;17990;49.548;9.730;2023-05-07T10:40:08;4.20;;;3.80;;
16735;SDS011;17990;49.548;9.730;2023-05-07T10:42:37;5.15;;;3.97;;
16735;SDS011;17990;49.548;9.730;2023-05-07T10:48:10;4.80;;;3.90;;
16735;SDS011;17990;49.548;9.730;2023-05-07T10:50:38;4.15;;;3.72;;
16735;SDS011;17990;49.548;9.730;2023-05-07T10:53:20;5.43;;;3.85;;
16735;SDS011;17990;49.548;9.730;2023-05-07T10:58:52;4.60;;;4.20;;
16735;SDS011;17990;49.548;9.730;2023-05-07T11:04:19;7.15;;;3.95;;
16735;SDS011;17990;49.548;9.730;2023-05-07T11:09:56;4.15;;;3.75;;
16735;SDS011;17990;49.548;9.730;2023-05-07T11:15:14;4.25;;;3.85;;
16735;SDS011;17990;49.548;9.730;2023-05-07T11:17:57;3.63;;;3.33;;
16735;SDS011;17990;49.548;9.730;2023-05-07T11:26:42;3.88;;;3.47;;
16735;SDS011;17990;49.548;9.730;2023-05-07T11:29:11;4.22;;;3.78;;
16735;SDS011;17990;49.548;9.730;2023-05-07T11:31:39;5.57;;;3.70;;
16735;SDS011;17990;49.548;9.730;2023-05-07T11:34:07;4.28;;;3.15;;
16735;SDS011;17990;49.548;9.730;2023-05-07T11:36:37;4.43;;;3.50;;
16735;SDS011;17990;49.548;9.730;2023-05-07T11:39:29;4.30;;;3.33;;
16735;SDS011;17990;49.548;9.730;2023-05-07T11:41:57;3.75;;;3.08;;
16735;SDS011;17990;49.548;9.730;2023-05-07T11:44:25;4.03;;;3.20;;
16735;SDS011;17990;49.548;9.730;2023-05-07T11:47:09;4.30;;;3.40;;
16735;SDS011;17990;49.548;9.730;2023-05-07T11:49:36;5.43;;;3.30;;
16735;SDS011;17990;49.548;9.730;2023-05-07T11:52:07;3.53;;;3.15;;
16735;SDS011;17990;49.548;9.730;2023-05-07T11:54:37;4.72;;;3.50;;
16735;SDS011;17990;49.548;9.730;2023-05-07T11:57:04;3.75;;;3.00;;
16735;SDS011;17990;49.548;9.730;2023-05-07T11:59:37;4.78;;;3.30;;
16735;SDS011;17990;49.548;9.730;2023-05-07T12:02:06;4.63;;;3.55;;
16735;SDS011;17990;49.548;9.730;2023-05-07T12:04:33;3.10;;;2.80;;
16735;SDS011;17990;49.548;9.730;2023-05-07T12:07:00;3.22;;;2.83;;
16735;SDS011;17990;49.548;9.730;2023-05-07T12:09:28;3.22;;;2.83;;
16735;SDS011;17990;49.548;9.730;2023-05-07T12:12:02;4.10;;;3.08;;
16735;SDS011;17990;49.548;9.730;2023-05-07T12:14:29;4.15;;;3.30;;
16735;SDS011;17990;49.548;9.730;2023-05-07T12:16:57;2.67;;;2.40;;
16735;SDS011;17990;49.548;9.730;2023-05-07T12:19:27;4.53;;;3.40;;
16735;SDS011;17990;49.548;9.730;2023-05-07T12:21:54;5.93;;;2.25;;
16735;SDS011;17990;49.548;9.730;2023-05-07T12:24:22;2.90;;;2.00;;
16735;SDS011;17990;49.548;9.730;2023-05-07T12:26:50;3.35;;;2.22;;
16735;SDS011;17990;49.548;9.730;2023-05-07T12:29:20;2.47;;;2.22;;
16735;SDS011;17990;49.548;9.730;2023-05-07T12:31:48;2.83;;;1.92;;
16735;SDS011;17990;49.548;9.730;2023-05-07T12:34:16;2.22;;;1.90;;
16735;SDS011;17990;49.548;9.730;2023-05-07T12:36:43;2.72;;;2.00;;
16735;SDS011;17990;49.548;9.730;2023-05-07T12:39:10;5.10;;;2.67;;
16735;SDS011;17990;49.548;9.730;2023-05-07T12:44:23;2.47;;;2.08;;
16735;SDS011;17990;49.548;9.730;2023-05-07T12:46:51;2.17;;;1.50;;
16735;SDS011;17990;49.548;9.730;2023-05-07T12:49:18;1.60;;;1.50;;
16735;SDS011;17990;49.548;9.730;2023-05-07T12:51:46;2.78;;;1.70;;
16735;SDS011;17990;49.548;9.730;2023-05-07T12:54:14;3.50;;;1.63;;
16735;SDS011;17990;49.548;9.730;2023-05-07T12:57:00;2.13;;;1.60;;
16735;SDS011;17990;49.548;9.730;2023-05-07T12:59:32;4.97;;;3.50;;
16735;SDS011;17990;49.548;9.730;2023-05-07T13:02:00;2.47;;;1.67;;
16735;SDS011;17990;49.548;9.730;2023-05-07T13:04:27;3.38;;;1.52;;
16735;SDS011;17990;49.548;9.730;2023-05-07T13:06:54;3.58;;;1.58;;
16735;SDS011;17990;49.548;9.730;2023-05-07T13:09:21;3.25;;;1.90;;
16735;SDS011;17990;49.548;9.730;2023-05-07T13:11:48;2.92;;;1.75;;
16735;SDS011;17990;49.548;9.730;2023-05-07T13:14:17;2.30;;;1.67;;
16735;SDS011;17990;49.548;9.730;2023-05-07T13:16:45;4.80;;;2.20;;
16735;SDS011;17990;49.548;9.730;2023-05-07T13:19:13;2.45;;;1.67;;
16735;SDS011;17990;49.548;9.730;2023-05-07T13:21:40;2.42;;;1.55;;
16735;SDS011;17990;49.548;9.730;2023-05-07T13:24:07;2.30;;;1.58;;
16735;SDS011;17990;49.548;9.730;2023-05-07T13:26:34;1.88;;;1.35;;
16735;SDS011;17990;49.548;9.730;2023-05-07T13:29:01;2.25;;;1.60;;
16735;SDS011;17990;49.548;9.730;2023-05-07T13:31:30;2.55;;;1.67;;
16735;SDS011;17990;49.548;9.730;2023-05-07T13:33:58;3.95;;;1.80;;
16735;SDS011;17990;49.548;9.730;2023-05-07T13:36:25;2.33;;;1.63;;
16735;SDS011;17990;49.548;9.730;2023-05-07T13:38:53;2.40;;;1.67;;
16735;SDS011;17990;49.548;9.730;2023-05-07T13:41:20;2.53;;;1.70;;
16735;SDS011;17990;49.548;9.730;2023-05-07T13:43:47;5.15;;;2.05;;
16735;SDS011;17990;49.548;9.730;2023-05-07T13:46:15;3.35;;;1.60;;
16735;SDS011;17990;49.548;9.730;2023-05-07T13:48:43;3.15;;;1.50;;
16735;SDS011;17990;49.548;9.730;2023-05-07T13:51:10;2.97;;;1.50;;
16735;SDS011;17990;49.548;9.730;2023-05-07T13:53:37;1.63;;;1.42;;
16735;SDS011;17990;49.548;9.730;2023-05-07T13:56:05;1.42;;;1.33;;
16735;SDS011;17990;49.548;9.730;2023-05-07T13:58:32;3.03;;;1.38;;
16735;SDS011;17990;49.548;9.730;2023-05-07T14:01:01;1.58;;;1.30;;
16735;SDS011;17990;49.548;9.730;2023-05-07T14:03:28;3.70;;;1.30;;
16735;SDS011;17990;49.548;9.730;2023-05-07T14:05:58;2.33;;;1.50;;
16735;SDS011;17990;49.548;9.730;2023-05-07T14:08:26;2.28;;;1.38;;
16735;SDS011;17990;49.548;9.730;2023-05-07T14:10:53;3.10;;;1.67;;
16735;SDS011;17990;49.548;9.730;2023-05-07T14:13:20;2.78;;;1.45;;
16735;SDS011;17990;49.548;9.730;2023-05-07T14:15:48;3.55;;;1.40;;
16735;SDS011;17990;49.548;9.730;2023-05-07T14:18:15;1.90;;;1.70;;
16735;SDS011;17990;49.548;9.730;2023-05-07T14:20:42;3.65;;;1.73;;
16735;SDS011;17990;49.548;9.730;2023-05-07T14:23:12;2.05;;;1.63;;
16735;SDS011;17990;49.548;9.730;2023-05-07T14:25:40;1.80;;;1.13;;
16735;SDS011;17990;49.548;9.730;2023-05-07T14:28:08;2.47;;;1.60;;
16735;SDS011;17990;49.548;9.730;2023-05-07T14:30:35;1.30;;;1.20;;
16735;SDS011;17990;49.548;9.730;2023-05-07T14:33:03;2.80;;;1.23;;
16735;SDS011;17990;49.548;9.730;2023-05-07T14:35:30;1.40;;;1.10;;
16735;SDS011;17990;49.548;9.730;2023-05-07T14:37:57;1.45;;;1.30;;
16735;SDS011;17990;49.548;9.730;2023-05-07T14:40:26;2.80;;;1.30;;
16735;SDS011;17990;49.548;9.730;2023-05-07T14:42:53;4.18;;;1.35;;
16735;SDS011;17990;49.548;9.730;2023-05-07T14:45:22;3.55;;;1.30;;
16735;SDS011;17990;49.548;9.730;2023-05-07T14:47:49;1.85;;;1.50;;
16735;SDS011;17990;49.548;9.730;2023-05-07T14:50:16;2.08;;;1.38;;
16735;SDS011;17990;49.548;9.730;2023-05-07T14:52:44;1.88;;;1.20;;
16735;SDS011;17990;49.548;9.730;2023-05-07T14:55:11;2.78;;;0.98;;
16735;SDS011;17990;49.548;9.730;2023-05-07T14:57:40;3.15;;;1.65;;
16735;SDS011;17990;49.548;9.730;2023-05-07T15:00:08;1.30;;;1.20;;
16735;SDS011;17990;49.548;9.730;2023-05-07T15:02:36;1.55;;;1.38;;
16735;SDS011;17990;49.548;9.730;2023-05-07T15:05:03;1.70;;;1.30;;
16735;SDS011;17990;49.548;9.730;2023-05-07T15:07:31;1.45;;;1.08;;
16735;SDS011;17990;49.548;9.730;2023-05-07T15:09:59;2.53;;;1.67;;
16735;SDS011;17990;49.548;9.730;2023-05-07T15:12:26;2.55;;;1.65;;
16735;SDS011;17990;49.548;9.730;2023-05-07T15:14:55;7.22;;;5.35;;
16735;SDS011;17990;49.548;9.730;2023-05-07T15:17:22;2.20;;;1.33;;